Time;durP1;ratioP1;P1;durP2;ratioP2;P2;SDS_P1;SDS_P2;PMS_P1;PMS_P2;Temp;Humidity;BMP_temperature;BMP_pressure;BME280_temperature;BME280_humidity;BME280_pressure;Samples;Min_cycle;Max_cycle;Signal;HPM_P1;HPM_P2
2022/07/21 00:01:46;;;;;;;12.60;5.93;;;20.90;99.90;;;;;;5033575;28;20042;-47
2022/07/21 00:04:12;;;;;;;15.35;6.20;;;20.90;99.90;;;;;;5033656;28;20457;-46
2022/07/21 00:06:37;;;;;;;12.75;6.28;;;20.90;99.90;;;;;;5033459;28;20124;-47
2022/07/21 00:09:03;;;;;;;15.35;6.53;;;21.00;99.90;;;;;;5033721;28;20045;-47
2022/07/21 00:11:29;;;;;;;10.95;5.95;;;21.00;99.90;;;;;;5033513;28;20033;-46
2022/07/21 00:13:55;;;;;;;16.65;6.63;;;20.90;99.90;;;;;;5033323;28;20071;-46
2022/07/21 00:16:20;;;;;;;12.13;6.75;;;20.90;99.90;;;;;;5033537;28;20041;-46
2022/07/21 00:18:46;;;;;;;12.75;6.82;;;20.90;99.90;;;;;;5033335;28;20397;-46
2022/07/21 00:21:12;;;;;;;14.93;7.20;;;20.90;99.90;;;;;;5046024;28;20381;-46
2022/07/21 00:23:38;;;;;;;13.07;7.20;;;20.90;99.90;;;;;;5053338;28;20048;-46
2022/07/21 00:26:04;;;;;;;12.38;6.65;;;20.90;99.90;;;;;;5053284;28;20051;-49
2022/07/21 00:28:29;;;;;;;14.57;7.13;;;20.80;99.90;;;;;;5053152;28;20401;-45
2022/07/21 00:30:55;;;;;;;13.50;7.18;;;20.80;99.90;;;;;;5051377;28;20390;-46
2022/07/21 00:33:21;;;;;;;15.45;7.82;;;20.80;99.90;;;;;;5053210;28;20136;-51
2022/07/21 00:35:46;;;;;;;15.15;7.68;;;20.80;99.90;;;;;;5052740;28;20516;-45
2022/07/21 00:38:12;;;;;;;12.43;6.65;;;20.80;99.90;;;;;;5053014;28;20106;-51
2022/07/21 00:40:38;;;;;;;14.20;8.65;;;20.90;99.90;;;;;;5052928;28;20048;-49
2022/07/21 00:43:04;;;;;;;15.95;7.97;;;20.90;99.90;;;;;;5052445;28;20051;-46
2022/07/21 00:45:30;;;;;;;16.88;8.32;;;20.80;99.90;;;;;;5052756;28;20053;-49
2022/07/21 00:47:55;;;;;;;14.43;8.38;;;20.80;99.90;;;;;;5052910;28;20044;-49
2022/07/21 00:50:22;;;;;;;13.60;8.05;;;20.80;99.90;;;;;;5052700;28;20128;-49
2022/07/21 00:52:48;;;;;;;14.57;8.82;;;20.70;99.90;;;;;;5052660;28;20488;-47
2022/07/21 00:55:17;;;;;;;15.10;9.50;;;20.70;99.90;;;;;;5052546;28;20033;-45
2022/07/21 00:57:43;;;;;;;14.07;9.20;;;20.70;99.90;;;;;;5052792;28;20045;-45
2022/07/21 01:00:13;;;;;;;14.57;9.05;;;20.70;99.90;;;;;;5052518;28;20041;-50
2022/07/21 01:02:39;;;;;;;13.88;9.38;;;20.70;99.90;;;;;;5051264;28;20091;-47
2022/07/21 01:05:14;;;;;;;15.75;9.20;;;20.70;99.90;;;;;;5052728;28;20065;-47
2022/07/21 01:07:48;;;;;;;17.30;9.70;;;20.70;99.90;;;;;;5052607;28;20120;-46
2022/07/21 01:10:16;;;;;;;19.25;10.40;;;20.70;99.90;;;;;;5052192;28;20052;-47
2022/07/21 01:12:42;;;;;;;20.02;10.68;;;20.60;99.90;;;;;;5052223;28;20493;-46
2022/07/21 01:15:10;;;;;;;17.83;11.57;;;20.50;99.90;;;;;;5052476;28;20085;-47
2022/07/21 01:17:37;;;;;;;16.35;11.90;;;20.60;99.90;;;;;;5052416;28;20098;-47
2022/07/21 01:20:06;;;;;;;17.38;11.93;;;20.40;99.90;;;;;;5048627;28;20033;-50
2022/07/21 01:22:34;;;;;;;20.15;12.10;;;20.50;99.90;;;;;;5032365;28;20433;-48
2022/07/21 01:25:00;;;;;;;19.25;12.05;;;20.40;99.90;;;;;;5032089;28;20102;-48
2022/07/21 01:27:27;;;;;;;17.48;12.15;;;20.40;99.90;;;;;;5032383;28;20041;-47
2022/07/21 01:29:53;;;;;;;18.83;13.25;;;20.30;99.90;;;;;;5031900;28;20069;-48
2022/07/21 01:32:19;;;;;;;21.95;14.55;;;20.30;99.90;;;;;;5032367;28;20092;-46
2022/07/21 01:34:44;;;;;;;20.60;13.70;;;20.30;99.90;;;;;;5032180;28;20065;-46
2022/07/21 01:37:11;;;;;;;24.42;14.55;;;20.20;99.90;;;;;;5047729;28;20048;-48
2022/07/21 01:42:20;;;;;;;23.70;15.18;;;20.10;99.90;;;;;;5032289;28;20107;-50
2022/07/21 01:44:47;;;;;;;20.88;13.98;;;20.10;99.90;;;;;;5032411;28;20033;-45
2022/07/21 01:47:13;;;;;;;19.20;14.35;;;20.20;99.90;;;;;;5032228;28;20049;-47
2022/07/21 01:49:39;;;;;;;21.40;14.25;;;20.10;99.90;;;;;;5032092;28;20126;-47
2022/07/21 01:52:05;;;;;;;21.67;14.13;;;20.10;99.90;;;;;;5031895;28;20042;-52
2022/07/21 01:54:32;;;;;;;19.67;13.32;;;20.10;99.90;;;;;;5036049;28;20426;-51
2022/07/21 01:56:57;;;;;;;21.13;14.13;;;20.00;99.90;;;;;;5036137;28;20051;-52
2022/07/21 01:59:23;;;;;;;22.63;14.73;;;20.00;99.90;;;;;;5036003;28;20113;-48
2022/07/21 02:01:49;;;;;;;21.50;15.48;;;20.00;99.90;;;;;;5034948;28;20045;-48
2022/07/21 02:04:14;;;;;;;20.25;14.40;;;19.90;99.90;;;;;;5018440;28;20048;-49
2022/07/21 02:06:40;;;;;;;19.02;13.80;;;19.90;99.90;;;;;;5035775;28;20516;-50
2022/07/21 02:09:07;;;;;;;25.58;14.70;;;20.00;99.90;;;;;;5034627;28;20060;-49
2022/07/21 02:11:32;;;;;;;23.95;15.07;;;20.00;99.90;;;;;;5034384;28;20038;-47
2022/07/21 02:13:58;;;;;;;19.92;14.25;;;20.10;99.90;;;;;;5034382;28;20046;-50
2022/07/21 02:16:24;;;;;;;20.13;14.13;;;20.00;99.90;;;;;;5035745;28;20033;-48
2022/07/21 02:18:49;;;;;;;18.75;13.98;;;20.00;99.90;;;;;;5035765;28;20108;-48
2022/07/21 02:21:15;;;;;;;20.83;13.98;;;20.00;99.90;;;;;;5049161;28;20068;-47
2022/07/21 02:23:41;;;;;;;19.20;13.57;;;20.00;99.90;;;;;;5055537;28;20083;-49
2022/07/21 02:26:07;;;;;;;21.83;14.52;;;19.90;99.90;;;;;;5055339;28;20116;-49
2022/07/21 02:28:32;;;;;;;23.08;14.32;;;20.00;99.90;;;;;;5055116;28;20493;-48
2022/07/21 02:30:58;;;;;;;23.17;13.63;;;19.70;99.90;;;;;;5055127;28;20048;-48
2022/07/21 02:33:24;;;;;;;20.33;14.40;;;19.60;99.90;;;;;;5055292;28;20062;-47
2022/07/21 02:35:49;;;;;;;21.50;14.55;;;19.70;99.90;;;;;;5055382;28;20064;-47
2022/07/21 02:38:15;;;;;;;24.15;15.23;;;19.70;99.90;;;;;;5055017;28;20033;-47
2022/07/21 02:40:41;;;;;;;22.13;15.30;;;19.80;99.90;;;;;;5054912;28;20048;-47
2022/07/21 02:43:07;;;;;;;24.85;15.30;;;19.70;99.90;;;;;;5054787;28;20049;-49
2022/07/21 02:45:33;;;;;;;21.60;15.27;;;19.50;99.90;;;;;;5054904;28;20095;-47
2022/07/21 02:48:05;;;;;;;21.45;16.05;;;19.50;99.90;;;;;;5055048;28;20390;-49
2022/07/21 02:50:32;;;;;;;19.67;14.20;;;19.60;99.90;;;;;;5053649;28;20080;-49
2022/07/21 02:53:03;;;;;;;23.33;15.50;;;19.50;99.90;;;;;;5054691;28;20500;-48
2022/07/21 02:55:29;;;;;;;23.90;15.50;;;19.60;99.90;;;;;;5054785;28;20441;-47
2022/07/21 02:58:04;;;;;;;25.45;16.83;;;19.50;99.90;;;;;;5055039;28;20115;-49
2022/07/21 03:00:30;;;;;;;24.38;16.45;;;19.50;99.90;;;;;;5054786;28;20049;-47
2022/07/21 03:02:55;;;;;;;24.25;17.75;;;19.60;99.90;;;;;;5070202;28;20037;-48
2022/07/21 03:05:21;;;;;;;24.67;18.20;;;19.70;99.90;;;;;;5053993;28;20029;-47
2022/07/21 03:07:46;;;;;;;24.35;18.63;;;19.60;99.90;;;;;;5054486;28;20041;-48
2022/07/21 03:10:12;;;;;;;25.70;17.90;;;19.60;99.90;;;;;;5054698;28;20041;-46
2022/07/21 03:12:38;;;;;;;23.67;17.77;;;19.50;99.90;;;;;;5054500;28;20037;-48
2022/07/21 03:15:04;;;;;;;25.08;19.33;;;19.50;99.90;;;;;;5054482;28;20044;-51
2022/07/21 03:17:30;;;;;;;27.65;19.02;;;19.50;99.90;;;;;;5054511;28;20060;-48
2022/07/21 03:19:55;;;;;;;25.13;18.20;;;19.70;99.90;;;;;;5050215;28;20053;-49
2022/07/21 03:22:21;;;;;;;26.30;19.17;;;19.70;99.90;;;;;;5033314;28;20389;-47
2022/07/21 03:24:47;;;;;;;23.90;18.38;;;19.70;99.90;;;;;;5034076;28;20076;-48
2022/07/21 03:27:12;;;;;;;24.88;18.55;;;19.80;99.90;;;;;;5034488;28;20588;-48
2022/07/21 03:29:38;;;;;;;25.33;19.13;;;19.80;99.90;;;;;;5049339;28;20055;-46
2022/07/21 03:32:04;;;;;;;27.60;19.88;;;19.80;99.90;;;;;;5034467;28;20050;-47
2022/07/21 03:34:30;;;;;;;22.20;18.77;;;19.70;99.90;;;;;;5034113;28;20033;-49
2022/07/21 03:36:55;;;;;;;25.48;18.10;;;19.80;99.90;;;;;;5033997;28;20056;-48
2022/07/21 03:39:21;;;;;;;27.48;19.77;;;19.80;99.90;;;;;;5033970;28;20041;-48
2022/07/21 03:41:47;;;;;;;24.27;17.95;;;19.90;99.90;;;;;;5034049;28;20045;-47
2022/07/21 03:44:12;;;;;;;24.25;17.77;;;19.80;99.90;;;;;;5034167;28;20040;-50
2022/07/21 03:46:38;;;;;;;25.98;19.77;;;19.80;99.90;;;;;;5033911;28;20163;-49
2022/07/21 03:49:03;;;;;;;26.65;18.58;;;19.70;99.90;;;;;;5034117;28;20120;-52
2022/07/21 03:51:29;;;;;;;29.02;21.58;;;19.70;99.90;;;;;;5033772;28;20038;-47
2022/07/21 03:53:55;;;;;;;27.30;20.15;;;19.70;99.90;;;;;;5033840;28;20463;-49
2022/07/21 03:56:23;;;;;;;26.27;20.38;;;19.80;99.90;;;;;;5033903;28;20092;-47
2022/07/21 03:58:49;;;;;;;27.40;18.85;;;19.80;99.90;;;;;;5033942;28;20037;-48
2022/07/21 04:01:14;;;;;;;26.55;19.83;;;19.70;99.90;;;;;;5032331;28;20060;-48
2022/07/21 04:03:40;;;;;;;25.75;19.05;;;19.70;99.90;;;;;;5033781;28;20041;-51
2022/07/21 04:06:10;;;;;;;24.45;18.55;;;19.90;99.90;;;;;;5033745;28;20047;-51
2022/07/21 04:08:36;;;;;;;28.00;20.73;;;19.90;99.90;;;;;;5033736;28;20125;-48
2022/07/21 04:11:02;;;;;;;27.30;21.63;;;19.80;99.90;;;;;;5033736;28;20092;-47
2022/07/21 04:13:27;;;;;;;26.77;20.20;;;19.80;99.90;;;;;;5033215;28;20406;-46
2022/07/21 04:15:53;;;;;;;29.92;21.60;;;19.70;99.90;;;;;;5032949;28;20080;-46
2022/07/21 04:18:19;;;;;;;30.70;22.05;;;19.60;99.90;;;;;;5032989;28;20079;-52
2022/07/21 04:20:44;;;;;;;29.15;22.05;;;19.70;99.90;;;;;;5042913;28;20095;-47
2022/07/21 04:23:10;;;;;;;28.50;21.38;;;19.70;99.90;;;;;;5053691;28;20045;-48
2022/07/21 04:25:38;;;;;;;28.60;21.85;;;19.70;99.90;;;;;;5053539;28;20074;-46
2022/07/21 04:28:04;;;;;;;26.50;20.85;;;19.60;99.90;;;;;;5053071;28;20507;-46
2022/07/21 04:30:30;;;;;;;24.63;19.98;;;19.70;99.90;;;;;;5052671;28;20131;-47
2022/07/21 04:32:56;;;;;;;26.25;20.58;;;19.60;99.90;;;;;;5052957;28;20128;-47
2022/07/21 04:35:22;;;;;;;28.38;21.25;;;19.60;99.90;;;;;;5053126;28;20041;-47
2022/07/21 04:37:49;;;;;;;27.48;20.58;;;19.70;99.90;;;;;;5053116;28;20073;-48
2022/07/21 04:40:15;;;;;;;27.92;21.50;;;19.60;99.90;;;;;;5052971;28;20043;-46
2022/07/21 04:42:42;;;;;;;26.33;20.70;;;19.60;99.90;;;;;;5051579;28;20045;-46
2022/07/21 04:45:11;;;;;;;31.48;22.08;;;19.60;99.90;;;;;;5051399;28;20049;-47
2022/07/21 04:47:49;;;;;;;31.65;22.88;;;19.50;99.90;;;;;;5052722;28;20040;-46
2022/07/21 04:50:16;;;;;;;28.38;22.15;;;19.50;99.90;;;;;;5052471;28;20572;-46
2022/07/21 04:52:42;;;;;;;28.67;21.95;;;19.50;99.90;;;;;;5052936;28;20033;-48
2022/07/21 04:55:09;;;;;;;33.40;23.25;;;19.50;99.90;;;;;;5052511;28;20033;-47
2022/07/21 04:57:39;;;;;;;29.77;23.58;;;19.60;99.90;;;;;;5052508;28;20037;-48
2022/07/21 05:00:08;;;;;;;35.85;24.38;;;19.50;99.90;;;;;;5052468;28;20044;-46
2022/07/21 05:02:33;;;;;;;36.35;24.20;;;19.50;99.90;;;;;;5052681;28;20053;-48
2022/07/21 05:04:59;;;;;;;32.83;24.80;;;19.60;99.90;;;;;;5052603;28;20029;-47
2022/07/21 05:07:25;;;;;;;31.20;25.13;;;19.70;99.90;;;;;;5052595;28;20201;-48
2022/07/21 05:09:50;;;;;;;37.03;27.65;;;19.60;99.90;;;;;;5052364;28;20045;-48
2022/07/21 05:12:16;;;;;;;33.30;27.40;;;19.70;99.90;;;;;;5052345;28;20055;-47
2022/07/21 05:14:41;;;;;;;37.38;27.42;;;19.70;99.90;;;;;;5052057;28;20048;-48
2022/07/21 05:17:07;;;;;;;33.80;26.38;;;19.70;99.90;;;;;;5052187;28;20036;-46
2022/07/21 05:19:33;;;;;;;34.30;27.42;;;19.80;99.90;;;;;;5051985;28;20045;-47
2022/07/21 05:21:58;;;;;;;29.08;25.13;;;19.70;99.90;;;;;;5032606;28;20079;-49
2022/07/21 05:24:24;;;;;;;34.42;28.08;;;19.90;99.90;;;;;;5032256;28;20099;-48
2022/07/21 05:26:49;;;;;;;31.90;26.42;;;19.70;99.90;;;;;;5032537;28;20429;-48
2022/07/21 05:29:15;;;;;;;28.55;25.15;;;19.80;99.90;;;;;;5030365;28;20382;-47
2022/07/21 05:31:41;;;;;;;31.00;25.55;;;19.90;99.90;;;;;;5032107;28;20390;-50
2022/07/21 05:34:06;;;;;;;29.42;23.65;;;19.90;99.90;;;;;;5032395;28;20117;-48
2022/07/21 05:36:32;;;;;;;28.75;24.02;;;20.00;99.90;;;;;;5032362;28;20366;-47
2022/07/21 05:38:58;;;;;;;27.27;24.17;;;19.90;99.90;;;;;;5032166;28;20064;-46
2022/07/21 05:41:24;;;;;;;25.77;22.65;;;19.90;99.90;;;;;;5031902;28;20045;-46
2022/07/21 05:43:49;;;;;;;27.65;23.27;;;19.70;99.90;;;;;;5031956;28;20124;-49
2022/07/21 05:46:15;;;;;;;25.20;20.30;;;19.70;99.90;;;;;;5031757;28;20042;-46
2022/07/21 05:48:41;;;;;;;19.98;17.75;;;19.70;99.90;;;;;;5032230;28;20046;-45
2022/07/21 05:51:07;;;;;;;22.42;18.70;;;19.60;99.90;;;;;;5032110;28;20049;-45
2022/07/21 05:53:33;;;;;;;22.23;18.88;;;19.70;99.90;;;;;;5032164;28;20033;-44
2022/07/21 05:55:58;;;;;;;22.00;18.30;;;19.60;99.90;;;;;;5030787;28;20120;-44
2022/07/21 05:58:24;;;;;;;23.55;20.23;;;19.50;99.90;;;;;;5032245;28;20436;-49
2022/07/21 06:01:09;;;;;;;22.60;19.30;;;19.50;99.90;;;;;;5031814;28;20076;-47
2022/07/21 06:03:39;;;;;;;24.50;19.23;;;19.50;99.90;;;;;;5031607;28;20081;-46
2022/07/21 06:06:05;;;;;;;23.17;20.55;;;19.50;99.90;;;;;;5031664;28;20047;-45
2022/07/21 06:08:31;;;;;;;24.10;20.80;;;19.40;99.90;;;;;;5031501;28;20030;-45
2022/07/21 06:10:57;;;;;;;25.90;21.75;;;19.50;99.90;;;;;;5046826;28;20118;-45
2022/07/21 06:13:23;;;;;;;25.85;21.20;;;19.50;99.90;;;;;;5031720;28;20117;-45
2022/07/21 06:15:48;;;;;;;27.85;22.85;;;19.50;99.90;;;;;;5031653;28;20033;-45
2022/07/21 06:18:14;;;;;;;25.92;21.67;;;19.50;99.90;;;;;;5031525;28;20041;-45
2022/07/21 06:20:41;;;;;;;24.40;21.70;;;19.50;99.90;;;;;;5040336;28;20041;-45
2022/07/21 06:23:07;;;;;;;29.27;24.17;;;19.60;99.90;;;;;;5051325;28;20090;-46
2022/07/21 06:25:32;;;;;;;31.70;25.63;;;19.60;99.90;;;;;;5051278;28;20648;-44
2022/07/21 06:27:58;;;;;;;30.98;25.02;;;19.70;99.90;;;;;;5051543;28;20095;-46
2022/07/21 06:30:24;;;;;;;28.63;22.73;;;19.60;99.90;;;;;;5051152;28;20413;-46
2022/07/21 06:32:49;;;;;;;29.73;24.27;;;19.70;99.90;;;;;;5066782;28;20501;-45
2022/07/21 06:35:15;;;;;;;28.60;23.80;;;19.60;99.90;;;;;;5051396;28;20037;-47
2022/07/21 06:37:45;;;;;;;31.20;25.30;;;19.60;99.90;;;;;;5050052;28;20118;-49
2022/07/21 06:40:11;;;;;;;28.15;24.65;;;19.30;99.90;;;;;;5053041;28;20040;-50
2022/07/21 06:42:37;;;;;;;31.00;26.77;;;19.30;99.90;;;;;;5070696;28;20051;-46
2022/07/21 06:45:04;;;;;;;30.45;24.77;;;19.50;99.90;;;;;;5053871;28;20531;-46
2022/07/21 06:47:30;;;;;;;32.45;26.88;;;19.40;99.90;;;;;;5055096;28;20123;-49
2022/07/21 06:49:57;;;;;;;36.42;27.35;;;19.50;99.90;;;;;;5055027;28;20125;-46
2022/07/21 06:52:23;;;;;;;33.83;27.15;;;19.60;99.90;;;;;;5054978;28;20040;-46
2022/07/21 06:54:48;;;;;;;32.85;27.75;;;19.60;99.90;;;;;;5054808;28;20043;-46
2022/07/21 06:57:14;;;;;;;29.48;24.55;;;19.60;99.90;;;;;;5054766;28;20068;-46
2022/07/21 06:59:40;;;;;;;32.30;25.83;;;19.60;99.90;;;;;;5054831;28;20095;-46
2022/07/21 07:02:05;;;;;;;34.42;26.10;;;19.50;99.90;;;;;;5054564;28;20409;-47
2022/07/21 07:04:31;;;;;;;33.35;26.25;;;19.60;99.90;;;;;;5054682;28;20072;-45
2022/07/21 07:06:57;;;;;;;28.63;23.98;;;19.60;99.90;;;;;;5054355;28;20037;-46
2022/07/21 07:09:23;;;;;;;31.50;25.73;;;19.60;99.90;;;;;;5054504;28;20048;-45
2022/07/21 07:11:51;;;;;;;31.85;26.83;;;19.60;99.90;;;;;;5054228;28;20091;-45
2022/07/21 07:14:18;;;;;;;30.60;24.80;;;19.80;99.90;;;;;;5054165;28;20501;-48
2022/07/21 07:16:44;;;;;;;32.13;26.00;;;19.70;99.90;;;;;;5053950;28;20052;-45
2022/07/21 07:19:10;;;;;;;30.85;26.80;;;19.70;99.90;;;;;;5054499;28;20041;-46
2022/07/21 07:21:35;;;;;;;33.95;26.95;;;19.70;99.90;;;;;;5037839;28;20115;-51
2022/07/21 07:24:02;;;;;;;32.63;26.73;;;19.70;99.90;;;;;;5034295;28;20049;-46
2022/07/21 07:26:28;;;;;;;29.17;23.92;;;19.70;99.90;;;;;;5033259;28;20044;-45
2022/07/21 07:28:54;;;;;;;35.83;27.30;;;19.80;99.90;;;;;;5034355;28;20037;-49
2022/07/21 07:31:20;;;;;;;30.42;26.00;;;19.90;99.90;;;;;;5033791;28;20485;-50
2022/07/21 07:33:45;;;;;;;32.90;27.67;;;19.90;99.90;;;;;;5033927;28;20045;-45
2022/07/21 07:36:12;;;;;;;32.33;28.15;;;19.90;99.90;;;;;;5033738;28;20034;-45
2022/07/21 07:38:39;;;;;;;29.40;26.15;;;20.00;99.90;;;;;;5033752;28;20073;-50
2022/07/21 07:41:05;;;;;;;31.42;26.77;;;20.10;99.90;;;;;;5033850;28;20041;-50
2022/07/21 07:43:30;;;;;;;31.05;26.50;;;20.10;99.90;;;;;;5033935;28;20064;-46
2022/07/21 07:45:56;;;;;;;36.05;30.52;;;20.20;99.90;;;;;;5034108;28;20052;-48
2022/07/21 07:48:22;;;;;;;34.05;30.35;;;20.20;99.90;;;;;;5034029;28;20046;-46
2022/07/21 07:50:48;;;;;;;33.78;30.13;;;20.20;99.90;;;;;;5033841;28;20041;-48
2022/07/21 07:53:13;;;;;;;34.63;29.38;;;20.30;99.90;;;;;;5033817;28;20042;-49
2022/07/21 07:55:39;;;;;;;30.05;26.10;;;20.30;99.90;;;;;;5034029;28;20041;-49
2022/07/21 07:58:05;;;;;;;29.00;25.83;;;20.20;99.90;;;;;;5033805;28;20060;-46
2022/07/21 08:00:30;;;;;;;31.92;28.08;;;20.30;99.90;;;;;;5033907;28;20048;-49
2022/07/21 08:02:56;;;;;;;28.85;25.75;;;20.30;99.90;;;;;;5033351;28;20037;-48
2022/07/21 08:05:22;;;;;;;30.40;27.00;;;20.30;99.90;;;;;;5033598;28;20371;-46
2022/07/21 08:07:47;;;;;;;31.17;27.08;;;20.40;99.90;;;;;;5033498;28;20525;-49
2022/07/21 08:10:14;;;;;;;31.75;28.42;;;20.40;99.90;;;;;;5032143;28;20385;-49
2022/07/21 08:12:40;;;;;;;30.70;27.02;;;20.40;99.90;;;;;;5033570;28;20500;-45
2022/07/21 08:15:06;;;;;;;31.40;26.95;;;20.50;99.90;;;;;;5033335;28;20045;-50
2022/07/21 08:17:32;;;;;;;30.42;27.23;;;20.50;99.90;;;;;;5033452;28;20046;-51
2022/07/21 08:19:58;;;;;;;30.38;27.27;;;20.40;99.90;;;;;;5036168;28;20052;-52
2022/07/21 08:22:23;;;;;;;32.17;28.63;;;20.40;99.90;;;;;;5053196;28;20060;-47
2022/07/21 08:24:49;;;;;;;33.58;29.92;;;20.40;99.90;;;;;;5053356;28;20611;-50
2022/07/21 08:27:15;;;;;;;33.00;29.50;;;20.40;99.90;;;;;;5053205;28;20051;-48
2022/07/21 08:29:41;;;;;;;31.85;28.48;;;20.50;99.90;;;;;;5051585;28;20037;-47
2022/07/21 08:32:06;;;;;;;31.95;28.48;;;20.50;99.90;;;;;;5052810;28;20052;-48
2022/07/21 08:34:32;;;;;;;32.95;29.35;;;20.50;99.90;;;;;;5052945;28;20133;-48
2022/07/21 08:36:58;;;;;;;33.38;29.75;;;20.40;99.90;;;;;;5052563;28;20386;-46
2022/07/21 08:39:24;;;;;;;33.47;28.27;;;20.50;99.90;;;;;;5052564;28;20060;-47
2022/07/21 08:41:51;;;;;;;32.33;27.65;;;20.50;99.90;;;;;;5052827;28;20429;-47
2022/07/21 08:44:17;;;;;;;32.92;29.10;;;20.60;99.90;;;;;;5052541;28;20592;-48
2022/07/21 08:46:45;;;;;;;33.28;28.45;;;20.60;99.90;;;;;;5051104;28;20133;-48
2022/07/21 08:49:11;;;;;;;30.77;27.48;;;20.50;99.90;;;;;;5052618;28;20410;-50
2022/07/21 08:51:37;;;;;;;32.95;29.35;;;20.60;99.90;;;;;;5067437;28;20049;-48
2022/07/21 08:54:04;;;;;;;33.53;28.63;;;20.50;99.90;;;;;;5052328;28;20033;-48
2022/07/21 08:56:29;;;;;;;35.65;29.92;;;20.50;99.90;;;;;;5052078;28;20120;-50
2022/07/21 08:58:55;;;;;;;33.85;29.17;;;20.60;99.90;;;;;;5052348;28;20120;-50
2022/07/21 09:01:24;;;;;;;37.35;30.85;;;20.60;99.90;;;;;;5052038;28;20124;-47
2022/07/21 09:03:53;;;;;;;37.85;31.08;;;20.40;99.90;;;;;;5051744;28;20059;-48
2022/07/21 09:06:20;;;;;;;40.25;31.67;;;20.40;99.90;;;;;;5067547;28;20092;-46
2022/07/21 09:08:49;;;;;;;37.45;31.77;;;20.60;99.90;;;;;;5052095;28;20043;-46
2022/07/21 09:11:24;;;;;;;40.70;33.22;;;20.50;99.90;;;;;;5051898;28;20045;-46
2022/07/21 09:14:05;;;;;;;43.45;35.78;;;20.50;99.90;;;;;;5051806;28;20115;-47
2022/07/21 09:16:39;;;;;;;42.42;34.88;;;20.70;99.90;;;;;;5051835;28;20091;-45
2022/07/21 09:19:06;;;;;;;40.60;35.33;;;20.70;99.90;;;;;;5052216;28;20040;-44
2022/07/21 09:21:33;;;;;;;45.28;37.20;;;20.60;99.90;;;;;;5035994;28;20045;-44
2022/07/21 09:24:38;;;;;;;41.20;35.17;;;20.30;99.90;;;;;;5032051;28;20049;-45
2022/07/21 09:27:13;;;;;;;42.80;36.13;;;20.40;99.90;;;;;;5032427;28;20064;-46
2022/07/21 09:29:55;;;;;;;47.00;36.40;;;20.40;99.90;;;;;;5031947;28;20045;-46
2022/07/21 09:32:26;;;;;;;43.58;36.85;;;20.50;99.90;;;;;;5032517;28;20117;-46
2022/07/21 09:35:00;;;;;;;43.53;37.65;;;20.60;99.90;;;;;;5032126;28;20092;-47
2022/07/21 09:37:27;;;;;;;43.30;36.80;;;20.50;99.90;;;;;;5031978;28;20045;-49
2022/07/21 09:39:58;;;;;;;47.50;37.97;;;20.40;99.90;;;;;;5032157;28;20061;-47
2022/07/21 09:42:29;;;;;;;45.20;37.15;;;20.30;99.90;;;;;;5032301;28;20045;-45
2022/07/21 09:44:56;;;;;;;47.20;37.97;;;20.40;99.90;;;;;;5032226;28;20128;-47
2022/07/21 09:47:24;;;;;;;41.83;37.22;;;20.40;99.90;;;;;;5032124;28;20037;-48
2022/07/21 09:49:50;;;;;;;42.33;36.22;;;20.40;99.90;;;;;;5031896;28;20124;-47
2022/07/21 09:52:42;;;;;;;43.33;37.30;;;20.60;99.90;;;;;;5032075;28;20155;-46
2022/07/21 09:55:12;;;;;;;;;;;20.50;99.90;;;;;;5032688;28;20033;-50
2022/07/21 09:57:37;;;;;;;42.60;36.72;;;20.40;99.90;;;;;;5032111;28;19917;-49
2022/07/21 10:00:13;;;;;;;44.95;38.05;;;20.40;99.90;;;;;;5032098;28;20044;-45
2022/07/21 10:02:39;;;;;;;49.92;39.92;;;20.40;99.90;;;;;;5031825;28;20045;-48
2022/07/21 10:05:07;;;;;;;45.15;39.47;;;20.40;99.90;;;;;;5031976;28;20096;-47
2022/07/21 10:07:40;;;;;;;50.63;41.58;;;20.30;99.90;;;;;;5031967;28;20042;-50
2022/07/21 10:10:07;;;;;;;45.55;38.63;;;20.30;99.90;;;;;;5014015;28;20514;-46
2022/07/21 10:12:33;;;;;;;47.03;41.03;;;20.30;99.90;;;;;;5031874;28;20042;-50
2022/07/21 10:14:59;;;;;;;48.75;40.95;;;20.30;99.90;;;;;;5032798;28;20044;-47
2022/07/21 10:17:26;;;;;;;51.20;42.42;;;20.30;99.90;;;;;;5035697;28;20428;-48
2022/07/21 10:20:09;;;;;;;49.47;43.15;;;20.30;99.90;;;;;;5037853;28;20052;-49
2022/07/21 10:23:14;;;;;;;50.28;42.15;;;20.30;99.90;;;;;;5055520;28;20095;-47
2022/07/21 10:25:42;;;;;;;51.70;41.63;;;20.40;99.90;;;;;;5055213;28;20037;-47
2022/07/21 10:28:14;;;;;;;51.88;43.28;;;20.30;99.90;;;;;;5055589;28;20041;-47
2022/07/21 10:30:44;;;;;;;;;;;20.30;99.90;;;;;;5055659;28;20053;-50
2022/07/21 10:33:11;;;;;;;51.60;43.38;;;20.40;99.90;;;;;;5055122;28;19920;-49
2022/07/21 10:35:44;;;;;;;48.70;42.47;;;20.30;99.90;;;;;;5055235;28;20036;-46
2022/07/21 10:38:27;;;;;;;48.33;40.42;;;20.20;99.90;;;;;;5053827;28;20041;-49
2022/07/21 10:40:54;;;;;;;51.38;42.33;;;20.30;99.90;;;;;;5055153;28;20037;-50
2022/07/21 10:43:25;;;;;;;44.08;38.53;;;20.20;99.90;;;;;;5055258;28;20080;-49
2022/07/21 10:45:52;;;;;;;47.33;39.03;;;20.10;99.90;;;;;;5055218;28;20051;-48
2022/07/21 10:48:36;;;;;;;48.00;41.00;;;20.20;99.90;;;;;;5054978;28;20076;-47
2022/07/21 10:51:08;;;;;;;48.85;40.42;;;20.10;99.90;;;;;;5054783;28;20515;-47
2022/07/21 10:53:34;;;;;;;48.78;40.50;;;20.20;99.90;;;;;;5053588;28;20481;-46
2022/07/21 10:56:00;;;;;;;46.55;38.63;;;20.10;99.90;;;;;;5055059;28;20453;-47
2022/07/21 10:58:33;;;;;;;47.03;39.25;;;20.10;99.90;;;;;;5055121;28;20076;-49
2022/07/21 11:01:19;;;;;;;45.45;39.17;;;19.90;99.90;;;;;;5054600;28;20041;-47
2022/07/21 11:03:45;;;;;;;46.10;38.60;;;20.00;99.90;;;;;;5054990;28;20073;-47
2022/07/21 11:06:27;;;;;;;44.35;35.72;;;20.00;99.90;;;;;;5054630;28;20049;-48
2022/07/21 11:09:04;;;;;;;42.10;36.55;;;20.00;99.90;;;;;;5054920;28;20138;-47
2022/07/21 11:11:57;;;;;;;42.05;34.65;;;20.10;99.90;;;;;;5053103;28;20048;-50
2022/07/21 11:14:41;;;;;;;38.85;34.47;;;20.20;99.90;;;;;;5054601;28;20167;-47
2022/07/21 11:17:38;;;;;;;41.10;34.30;;;20.30;99.90;;;;;;5054730;28;20037;-52
2022/07/21 11:20:14;;;;;;;40.58;34.08;;;20.50;99.90;;;;;;5045645;28;20120;-48
2022/07/21 11:22:40;;;;;;;41.00;34.40;;;20.40;99.90;;;;;;5034658;28;20056;-46
2022/07/21 11:25:06;;;;;;;37.75;32.92;;;20.60;99.90;;;;;;5033886;28;20390;-46
2022/07/21 11:27:35;;;;;;;42.40;35.97;;;20.80;99.90;;;;;;5034171;28;20064;-46
2022/07/21 11:30:04;;;;;;;38.75;34.63;;;20.90;99.90;;;;;;5033888;28;20054;-46
2022/07/21 11:32:30;;;;;;;42.20;34.85;;;21.00;99.90;;;;;;5034489;28;20429;-46
2022/07/21 11:34:58;;;;;;;31.70;28.20;;;21.10;99.90;;;;;;5034352;28;20037;-48
2022/07/21 11:37:44;;;;;;;34.55;29.73;;;20.80;99.90;;;;;;5034241;28;20041;-50
2022/07/21 11:40:14;;;;;;;28.55;24.30;;;20.80;99.90;;;;;;5032605;28;20072;-47
2022/07/21 11:42:42;;;;;;;30.10;26.77;;;20.60;99.90;;;;;;5033912;28;20784;-47
2022/07/21 11:45:09;;;;;;;26.42;23.40;;;20.80;99.90;;;;;;5034015;28;20398;-46
2022/07/21 11:47:35;;;;;;;25.45;22.23;;;20.70;99.90;;;;;;5034153;28;20458;-48
2022/07/21 11:50:03;;;;;;;25.40;22.38;;;20.90;99.90;;;;;;5032822;28;20081;-48
2022/07/21 11:52:34;;;;;;;24.25;21.25;;;20.90;99.90;;;;;;5033914;28;20044;-48
2022/07/21 11:55:02;;;;;;;23.02;20.25;;;20.80;99.90;;;;;;5033898;28;20427;-49
2022/07/21 11:57:28;;;;;;;23.05;20.55;;;20.90;99.90;;;;;;5033808;28;20371;-46
2022/07/21 11:59:56;;;;;;;23.30;20.75;;;20.90;99.90;;;;;;5033487;28;20033;-49
2022/07/21 12:02:24;;;;;;;24.95;19.17;;;20.70;99.90;;;;;;5033529;28;20052;-49
2022/07/21 12:04:52;;;;;;;21.38;17.55;;;20.90;99.90;;;;;;5033670;28;20175;-48
2022/07/21 12:07:39;;;;;;;20.08;17.27;;;20.80;99.90;;;;;;5033686;28;20041;-47
2022/07/21 12:10:24;;;;;;;20.05;17.77;;;20.80;99.90;;;;;;5033866;28;20409;-47
2022/07/21 12:12:50;;;;;;;21.17;18.85;;;20.80;99.90;;;;;;5032046;28;20085;-50
2022/07/21 12:15:17;;;;;;;22.35;19.92;;;20.60;99.90;;;;;;5033490;28;20061;-49
2022/07/21 12:17:56;;;;;;;20.95;18.42;;;20.50;99.90;;;;;;5033222;28;20120;-46
2022/07/21 12:20:31;;;;;;;17.63;13.55;;;20.70;99.90;;;;;;5039779;28;20140;-48
2022/07/21 12:23:02;;;;;;;14.23;11.57;;;20.60;99.90;;;;;;5053159;28;20045;-45
2022/07/21 12:25:40;;;;;;;14.65;10.50;;;20.40;99.90;;;;;;5053446;28;20049;-48
2022/07/21 12:28:07;;;;;;;12.60;8.68;;;20.50;99.90;;;;;;5053252;28;20052;-48
2022/07/21 12:31:09;;;;;;;13.85;7.60;;;20.50;99.90;;;;;;5052684;28;20049;-47
2022/07/21 12:33:35;;;;;;;12.32;7.78;;;20.50;99.90;;;;;;5052784;28;20033;-47
2022/07/21 12:36:05;;;;;;;10.13;6.88;;;20.50;99.90;;;;;;5053080;28;20064;-47